»·PEaware :: N224LW KTOA-KPSP

N224LW :: KTOA-KPSP

FLIGHT INFORMATION

Flight Status: Arrived
Operator: Privately registered:
United States
More flights under this callsign
Pilot: Rod T. (6553)
Aircraft: CIRRUS SR-22 TURBO
(S22T)
More flights by this aircraft type
Origin: KTOA Zamperini
United States
Destination: KPSP Palm Springs Intl
United States
More flights between these airports :: More routes between these airports
Route: LIMBO V64 SLI V8 PDZ V388 PSP
File this flight plan on PilotEdge
Remarks:
Altitude:
(Current/Filed)
11,000ft
Speed:
(Current/Filed)
180kts
Departed: 13-Sep-18 07:56 PM
Arrived: 13-Sep-18 08:39 PM
Distance/Time
Traveled:
92nm/0:42
Distance/Time
To Go:
Arrived

Flight Plot

Page will automatically refresh every two minutes.

Flight plan parsing failed; only flown route is shown


Map Options




Map Legend


Flown Route
Filed Route
Departure Airport
Arrival Airport
Navaid (VOR, NDB)
Fix

Horizontal Profiles

Position Reports

Time Latitude Longitude Heading Altitude Ground
Speed
13-Sep-18 19:49 33.801689 -118.341608 42 105ft 0kts
13-Sep-18 19:50 33.801689 -118.341608 42 105ft 0kts
13-Sep-18 19:51 33.801689 -118.341608 42 105ft 0kts
13-Sep-18 19:52 33.801566 -118.341091 128 105ft 15kts
13-Sep-18 19:53 33.799070 -118.336112 129 105ft 25kts
13-Sep-18 19:54 33.798860 -118.333143 330 105ft 0kts
13-Sep-18 19:55 33.798860 -118.333143 330 105ft 0kts
13-Sep-18 19:56 33.798873 -118.333152 328 105ft 1kts
13-Sep-18 19:57 33.799157 -118.333223 35 105ft 2kts
13-Sep-18 19:58 33.810007 -118.348909 307 659ft 102kts
13-Sep-18 19:59 33.828680 -118.377580 309 1973ft 117kts
13-Sep-18 20:00 33.849860 -118.409453 308 3082ft 148kts
13-Sep-18 20:01 33.862211 -118.455262 220 3079ft 172kts
13-Sep-18 20:02 33.816152 -118.453050 169 3874ft 145kts
13-Sep-18 20:03 33.804154 -118.419919 76 5382ft 137kts
13-Sep-18 20:04 33.811164 -118.374647 80 6749ft 140kts
13-Sep-18 20:05 33.817325 -118.328012 81 8088ft 143kts
13-Sep-18 20:06 33.823513 -118.280410 81 9391ft 146kts
13-Sep-18 20:07 33.829792 -118.231928 81 10656ft 148kts
13-Sep-18 20:08 33.836607 -118.179196 81 11076ft 175kts
13-Sep-18 20:09 33.844362 -118.118865 81 11073ft 186kts
13-Sep-18 20:10 33.852328 -118.056756 81 11073ft 189kts
13-Sep-18 20:11 33.860315 -117.994025 81 11072ft 189kts
13-Sep-18 20:12 33.868299 -117.931277 81 11072ft 190kts
13-Sep-18 20:13 33.876232 -117.868555 81 11072ft 190kts
13-Sep-18 20:14 33.884136 -117.805768 81 11063ft 190kts
13-Sep-18 20:15 33.892053 -117.742806 81 11054ft 190kts
13-Sep-18 20:16 33.899476 -117.683292 81 11054ft 190kts
13-Sep-18 20:17 33.907258 -117.620736 81 11054ft 190kts
13-Sep-18 20:18 33.915037 -117.557905 81 11054ft 190kts
13-Sep-18 20:19 33.919842 -117.494852 87 11054ft 190kts
13-Sep-18 20:20 33.922413 -117.431441 86 11054ft 190kts
13-Sep-18 20:21 33.925004 -117.367796 86 11054ft 190kts
13-Sep-18 20:22 33.927548 -117.304487 87 11054ft 189kts
13-Sep-18 20:23 33.930042 -117.241638 87 11054ft 186kts
13-Sep-18 20:24 33.932475 -117.179523 87 11054ft 186kts
13-Sep-18 20:25 33.934891 -117.117061 87 11054ft 186kts
13-Sep-18 20:26 33.937259 -117.055086 87 11054ft 186kts
13-Sep-18 20:27 33.939608 -116.992606 87 11054ft 186kts
13-Sep-18 20:28 33.941908 -116.930691 87 11054ft 186kts
13-Sep-18 20:29 33.944196 -116.868202 87 11054ft 186kts
13-Sep-18 20:30 33.946441 -116.805947 87 11054ft 186kts
13-Sep-18 20:31 33.948628 -116.744655 87 11145ft 184kts
13-Sep-18 20:32 33.937007 -116.682021 101 10647ft 202kts
13-Sep-18 20:33 33.925760 -116.615048 101 9950ft 205kts
13-Sep-18 20:34 33.906699 -116.551254 121 8873ft 203kts
13-Sep-18 20:35 33.877963 -116.494560 121 7502ft 195kts
13-Sep-18 20:36 33.850092 -116.439522 121 6102ft 192kts
13-Sep-18 20:37 33.812833 -116.403570 201 4273ft 207kts
13-Sep-18 20:38 33.790757 -116.447158 257 2190ft 115kts
13-Sep-18 20:39 33.801964 -116.478933 311 1160ft 99kts
13-Sep-18 20:40 33.819887 -116.496095 323 622ft 78kts
13-Sep-18 20:41 33.829983 -116.504397 55 479ft 0kts
13-Sep-18 20:42 33.829983 -116.504397 55 479ft 0kts
13-Sep-18 20:43 33.830006 -116.504343 67 479ft 6kts
13-Sep-18 20:44 33.825626 -116.500186 140 479ft 20kts
13-Sep-18 20:45 33.824310 -116.498451 54 479ft 0kts

Navigation Log

Ident Type
Flight plan parsing failed, navigation log unavailable